Hauptseite
METAR-TAF:

METAR-TAF

Flughäfen :

Bukarest, Rumänien

Flughafen Bukarest Henri Coandă

Breite: 44-33N, Länge: 026-06E, Höhe: 95 m

Beobachtung

Neuester Wetterbericht von vor 20 Minuten, um 08:00 UTC
Wind 5 kt aus Ost/Nordost, variierte zwischen Nord/Nordost und Ost/Südost
Temperatur 19°C
Luftfeuchtigkeit 52%
Luftdruck 1014 hPa
Sichtweite 10 km oder mehr
keine Wolken unter 1500 m und keine Kumulonimbus oder Gewitterwolken

METAR: LROP 280800Z 07005KT 030V110 CAVOK 19/09 Q1014 NOSIG

Zeit: 11:20 (08:20 UTC)

Prognose

Neuester Wetterbericht von vor 3 Stunden und 20 Minuten, um 05:00 UTC
Gültige Prognose vom 28 um 06 UTC bis 29 um 06 UTC
Wind 8 kt aus Ost/Nordost
Sichtweite 10 km oder mehr
keine Wolken unter 1500 m und keine Kumulonimbus oder Gewitterwolken

TAF: LROP 280500Z 2806/2906 07008KT CAVOK

Wetterbeobachtungen und Prognosen von mehr als 4000 Flughäfen (METAR und TAF Bericht).

Die verfügbaren Stationen werden durch gelbe und rote Markierungen auf der Karte dargestellt.

Führen Sie die Maus auf sie, um den Namen der Station zu sehen.

Darauf klicken, um die Beobachtung von Wetterbeobachtungen und Prognosen zu sehen.

Um die Karte zu ändern : klicken Sie auf den grünen Tasten mit einem schwarzen Kreuz Zum Vergrößern, auf den grünen Button mit einem Gedankenstrich zu verkleinern, oder auf die grünen Pfeile für benachbarte Karten.


METAR-TAF: